Terminal Aerodrome Forecast
Issued by NWS Wilmington, OH

Current Version | Previous Version | Graphics & Text | Print | Product List | Glossary On
Versions: 1 2 3 4 5 6 7 8 9 10 11 12 13 14 15 16 17
617
FTUS41 KILN 250531
TAFDAY
TAF
KDAY 250531Z 2506/2606 04005KT P6SM SKC
     FM251700 06006KT P6SM FEW040
     FM260100 09005KT P6SM FEW200=

USA.gov is the U.S. government's official web portal to all federal, state and local government web resources and services.